EDDS/STR METAR and TAF weather

Enter ICAO airport designator
Station Type Date Time Source
EDDS METAR 2021/01/27 14:20 UTC NOAA

EDDS 271420Z 19005KT 9999 FEW008 OVC019 00/M02 Q1013 R25/29//95 NOSIG


Station Type Date Time Source
EDDS Decoded METAR 2021/01/27 14:20 UTC NOAA

Stuttgart-Echterdingen, Germany (EDDS) 48-41N 009-13E 391M
Jan 27, 2021 - 09:20 AM EST / 2021.01.27 1420 UTC
Wind: from the S (190 degrees) at 6 MPH (5 KT):0
Visibility: greater than 7 mile(s):0
Sky conditions: overcast
Temperature: 32 F (0 C)
Windchill: 26 F (-3 C):1
Dew Point: 28 F (-2 C)
Relative Humidity: 86%
Pressure (altimeter): 29.91 in. Hg (1013 hPa)
ob: EDDS 271420Z 19005KT 9999 FEW008 OVC019 00/M02 Q1013 R25/29//95 NOSIG
cycle: 14

Station Type Date Time Source
EDDS TAF 2021/01/27 12:03 UTC NOAA

TAF EDDS 271100Z 2712/2812 18005KT 6000 SCT008 BKN020
TEMPO 2712/2720 4000 -SN BR BKN008 PROB30
TEMPO 2712/2716 2500 SN
BECMG 2803/2806 4000 -DZRA BR

Example: see airport list